Time;durP1;ratioP1;P1;durP2;ratioP2;P2;SDS_P1;SDS_P2;PMS_P1;PMS_P2;Temp;Humidity;BMP_temperature;BMP_pressure;BME280_temperature;BME280_humidity;BME280_pressure;Samples;Min_cycle;Max_cycle;Signal;HPM_P1;HPM_P2
2022/06/01 00:02:35;;;;;;;2.45;1.75;;;18.10;62.50;;;;;;10415508;28;20100;-48
2022/06/01 00:07:36;;;;;;;3.20;2.20;;;18.10;62.50;;;;;;10415042;28;20473;-49
2022/06/01 00:12:37;;;;;;;3.47;1.80;;;18.10;62.50;;;;;;10408807;28;20025;-48
2022/06/01 00:17:38;;;;;;;2.10;1.42;;;18.10;62.50;;;;;;10417394;28;20043;-49
2022/06/01 00:22:38;;;;;;;2.45;1.50;;;18.10;62.60;;;;;;10431201;28;20029;-51
2022/06/01 00:27:39;;;;;;;4.65;2.00;;;18.10;62.60;;;;;;10415021;28;20524;-50
2022/06/01 00:32:40;;;;;;;2.38;1.45;;;18.10;62.60;;;;;;10415346;28;20175;-48
2022/06/01 00:37:41;;;;;;;2.00;1.70;;;18.10;62.50;;;;;;10415109;28;20040;-48
2022/06/01 00:42:46;;;;;;;2.70;2.22;;;18.10;62.50;;;;;;10414764;28;20029;-50
2022/06/01 00:47:49;;;;;;;2.63;1.77;;;18.00;62.50;;;;;;10415213;28;20399;-50
2022/06/01 00:53:22;;;;;;;2.47;1.90;;;18.10;62.50;;;;;;10429486;28;20553;-48
2022/06/01 00:58:28;;;;;;;3.13;1.95;;;18.10;62.60;;;;;;10407959;28;20191;-49
2022/06/01 01:03:34;;;;;;;3.15;1.95;;;18.00;62.50;;;;;;10412976;28;20041;-47
2022/06/01 01:08:35;;;;;;;2.88;2.10;;;18.10;62.60;;;;;;10414626;28;20143;-48
2022/06/01 01:13:37;;;;;;;3.50;2.38;;;18.00;62.50;;;;;;10414099;28;20381;-49
2022/06/01 01:18:43;;;;;;;2.17;1.83;;;18.00;62.50;;;;;;10413688;28;20394;-48
2022/06/01 01:24:28;;;;;;;2.70;2.08;;;18.00;62.50;;;;;;10428800;28;20112;-51
2022/06/01 01:29:37;;;;;;;2.83;1.73;;;18.00;62.60;;;;;;10413272;28;20076;-48
2022/06/01 01:34:40;;;;;;;2.43;1.67;;;18.00;62.50;;;;;;10412998;28;20486;-48
2022/06/01 01:39:41;;;;;;;2.25;1.60;;;18.00;62.50;;;;;;10413306;28;20021;-48
2022/06/01 01:45:10;;;;;;;2.28;1.75;;;18.00;62.50;;;;;;10413150;28;20029;-51
2022/06/01 01:50:12;;;;;;;1.95;1.73;;;18.00;62.50;;;;;;10411763;28;20414;-48
2022/06/01 01:55:34;;;;;;;2.53;1.70;;;18.00;62.60;;;;;;10411626;28;20034;-50
2022/06/01 02:00:45;;;;;;;3.22;1.92;;;18.00;62.60;;;;;;10412313;28;20083;-50
2022/06/01 02:06:25;;;;;;;2.65;1.70;;;18.00;62.60;;;;;;10403345;28;20049;-51
2022/06/01 02:17:10;;;;;;;1.73;1.40;;;18.00;62.60;;;;;;10411764;28;19913;-48
2022/06/01 02:22:13;;;;;;;1.85;1.67;;;18.00;62.70;;;;;;10413925;28;20026;-48
2022/06/01 02:27:18;;;;;;;2.40;1.85;;;17.90;62.60;;;;;;10423157;28;20545;-47
2022/06/01 02:32:20;;;;;;;1.95;1.73;;;18.00;62.70;;;;;;10411478;28;20038;-52
2022/06/01 02:37:22;;;;;;;2.00;1.33;;;18.00;62.60;;;;;;10410466;28;20448;-48
2022/06/01 02:42:26;;;;;;;2.75;1.50;;;18.00;62.60;;;;;;10426838;28;20037;-48
2022/06/01 02:47:30;;;;;;;1.95;1.73;;;17.90;62.60;;;;;;10412137;28;20052;-50
2022/06/01 02:52:31;;;;;;;2.22;1.73;;;17.90;62.60;;;;;;10426522;28;20025;-47
2022/06/01 02:57:33;;;;;;;1.65;1.13;;;17.90;62.60;;;;;;10426539;28;20029;-47
2022/06/01 03:02:38;;;;;;;1.90;1.30;;;18.00;62.70;;;;;;10410554;28;20034;-48
2022/06/01 03:07:40;;;;;;;1.67;1.30;;;17.90;62.70;;;;;;10416156;28;20466;-47
2022/06/01 03:12:41;;;;;;;2.00;1.33;;;17.90;62.70;;;;;;10411881;28;20029;-49
2022/06/01 03:17:43;;;;;;;2.72;1.40;;;17.90;62.70;;;;;;10420349;28;20029;-50
2022/06/01 03:22:44;;;;;;;1.58;1.23;;;17.90;62.70;;;;;;10416812;28;20420;-48
2022/06/01 03:27:45;;;;;;;1.67;1.27;;;17.90;62.70;;;;;;10414117;28;20033;-50
2022/06/01 03:32:47;;;;;;;1.88;1.48;;;17.90;62.60;;;;;;10416937;28;20040;-51
2022/06/01 03:37:49;;;;;;;1.40;1.00;;;17.90;62.70;;;;;;10417157;28;21349;-50
2022/06/01 03:42:49;;;;;;;1.63;1.35;;;17.90;62.70;;;;;;10415308;28;20032;-47
2022/06/01 03:47:50;;;;;;;1.92;1.20;;;17.90;62.60;;;;;;10423364;28;20032;-48
2022/06/01 03:52:52;;;;;;;1.90;1.63;;;17.90;62.60;;;;;;10416270;28;20633;-46
2022/06/01 03:57:53;;;;;;;1.90;1.27;;;17.90;62.70;;;;;;10416161;28;20021;-47
2022/06/01 04:02:54;;;;;;;1.80;1.40;;;17.90;62.70;;;;;;10414006;28;20029;-49
2022/06/01 04:07:55;;;;;;;1.92;1.38;;;17.90;62.70;;;;;;10420104;28;20029;-47
2022/06/01 04:12:56;;;;;;;1.00;0.85;;;17.90;62.70;;;;;;10414000;28;20472;-51
2022/06/01 04:17:56;;;;;;;1.10;1.00;;;17.80;62.60;;;;;;10416395;28;20037;-49
2022/06/01 04:23:00;;;;;;;2.40;1.48;;;17.90;62.70;;;;;;10415153;28;20029;-50
2022/06/01 04:28:01;;;;;;;2.58;1.42;;;17.90;62.70;;;;;;10419941;28;20037;-49
2022/06/01 04:33:02;;;;;;;2.00;1.33;;;17.80;62.60;;;;;;10414578;28;20052;-49
2022/06/01 04:38:14;;;;;;;1.90;1.58;;;17.90;62.70;;;;;;10414242;28;20042;-47
2022/06/01 04:43:19;;;;;;;2.35;1.73;;;17.80;62.70;;;;;;10415058;28;20064;-46
2022/06/01 04:48:20;;;;;;;1.92;1.50;;;17.80;62.70;;;;;;10430427;28;20033;-47
2022/06/01 04:53:21;;;;;;;4.20;1.65;;;17.80;62.70;;;;;;10414673;28;20053;-49
2022/06/01 04:58:22;;;;;;;6.85;2.20;;;17.90;63.80;;;;;;10413079;28;20037;-49
2022/06/01 05:03:23;;;;;;;8.23;2.95;;;17.90;64.00;;;;;;10413063;28;20101;-46
2022/06/01 05:08:24;;;;;;;7.60;2.80;;;18.10;64.30;;;;;;10412820;28;20049;-50
2022/06/01 05:13:25;;;;;;;6.93;3.22;;;18.10;64.80;;;;;;10412989;28;20041;-50
2022/06/01 05:18:26;;;;;;;8.25;3.40;;;18.10;65.30;;;;;;10414832;28;20028;-47
2022/06/01 05:23:27;;;;;;;8.68;3.35;;;18.10;65.30;;;;;;10428695;28;20048;-46
2022/06/01 05:28:31;;;;;;;10.30;3.30;;;18.10;65.30;;;;;;10413276;28;20033;-50
2022/06/01 05:33:33;;;;;;;13.63;3.53;;;18.10;65.50;;;;;;10411488;28;20036;-47
2022/06/01 05:38:35;;;;;;;19.77;4.30;;;18.00;65.60;;;;;;10408250;28;20025;-48
2022/06/01 05:43:36;;;;;;;21.48;3.78;;;18.00;65.60;;;;;;10413376;28;20170;-48
2022/06/01 05:48:37;;;;;;;11.57;3.13;;;18.00;65.50;;;;;;10412205;28;20140;-51
2022/06/01 05:53:37;;;;;;;13.50;4.13;;;18.00;65.40;;;;;;10407317;28;20037;-48
2022/06/01 05:58:38;;;;;;;25.52;6.40;;;17.90;65.40;;;;;;10401285;28;20029;-50
2022/06/01 06:03:39;;;;;;;25.17;7.75;;;18.00;65.30;;;;;;10409458;28;20083;-51
2022/06/01 06:08:52;;;;;;;38.50;9.90;;;17.90;65.50;;;;;;10411805;28;20037;-49
2022/06/01 06:13:53;;;;;;;33.45;9.52;;;18.00;65.30;;;;;;10408406;28;20055;-50
2022/06/01 06:18:58;;;;;;;16.40;5.60;;;17.90;65.10;;;;;;10413697;28;20366;-51
2022/06/01 06:24:00;;;;;;;12.60;5.97;;;17.90;64.90;;;;;;10426813;28;20108;-48
2022/06/01 06:29:03;;;;;;;16.95;5.43;;;17.90;65.00;;;;;;10411743;28;20402;-52
2022/06/01 06:34:05;;;;;;;15.15;4.40;;;17.90;65.10;;;;;;10411184;28;20490;-47
2022/06/01 06:39:05;;;;;;;18.38;5.47;;;17.90;65.00;;;;;;10411709;28;20105;-46
2022/06/01 06:44:06;;;;;;;15.57;4.78;;;17.90;65.10;;;;;;10416997;28;20040;-46
2022/06/01 06:49:07;;;;;;;9.88;4.20;;;17.90;65.00;;;;;;10418112;28;20040;-49
2022/06/01 06:54:08;;;;;;;11.50;4.60;;;17.90;64.70;;;;;;10417548;28;20025;-50
2022/06/01 06:59:12;;;;;;;10.23;4.07;;;17.80;64.70;;;;;;10417657;28;20044;-48
2022/06/01 07:04:12;;;;;;;9.98;3.70;;;17.90;64.90;;;;;;10418395;28;20120;-48
2022/06/01 07:09:13;;;;;;;13.45;3.95;;;17.80;64.80;;;;;;10417520;28;20034;-51
2022/06/01 07:14:14;;;;;;;12.00;3.97;;;17.90;65.50;;;;;;10415772;28;20458;-47
2022/06/01 07:19:15;;;;;;;8.20;3.83;;;17.90;64.80;;;;;;10419062;28;20037;-46
2022/06/01 07:24:16;;;;;;;9.82;4.22;;;17.90;65.10;;;;;;10417949;28;20040;-47
2022/06/01 07:29:19;;;;;;;9.80;3.38;;;17.90;65.30;;;;;;10417396;28;20396;-46
2022/06/01 07:34:20;;;;;;;21.20;3.67;;;17.90;65.30;;;;;;10417090;28;20073;-50
2022/06/01 07:44:41;;;;;;;12.00;4.10;;;17.90;64.90;;;;;;10416147;28;20045;-47
2022/06/01 07:49:41;;;;;;;8.18;3.00;;;18.00;65.30;;;;;;10417027;28;20107;-51
2022/06/01 07:54:43;;;;;;;6.45;3.40;;;17.90;65.30;;;;;;10415558;28;20083;-48
2022/06/01 07:59:44;;;;;;;7.20;3.50;;;17.90;65.40;;;;;;10415159;28;20151;-50
2022/06/01 08:04:45;;;;;;;6.68;2.95;;;17.90;65.00;;;;;;10411889;28;20170;-48
2022/06/01 08:09:47;;;;;;;6.88;3.92;;;18.00;65.10;;;;;;10413055;28;20025;-49
2022/06/01 08:14:48;;;;;;;8.88;2.80;;;18.00;65.10;;;;;;10412634;28;20128;-48
2022/06/01 08:19:48;;;;;;;9.35;2.80;;;18.00;65.10;;;;;;10415162;28;20560;-48
2022/06/01 08:24:49;;;;;;;9.77;2.58;;;18.00;65.10;;;;;;10414056;28;20037;-48
2022/06/01 08:29:50;;;;;;;5.05;2.28;;;18.00;65.00;;;;;;10415128;28;20060;-48
2022/06/01 08:34:51;;;;;;;6.28;2.35;;;18.00;64.90;;;;;;10413108;28;20124;-47
2022/06/01 08:39:51;;;;;;;5.07;2.13;;;18.10;65.00;;;;;;10413246;28;20022;-51
2022/06/01 08:45:01;;;;;;;4.35;2.15;;;18.00;64.90;;;;;;10414138;28;20112;-49
2022/06/01 08:50:24;;;;;;;5.15;2.08;;;18.00;65.00;;;;;;10412834;28;20037;-53
2022/06/01 08:55:33;;;;;;;5.15;2.60;;;18.00;65.00;;;;;;10413641;28;20025;-51
2022/06/01 09:00:46;;;;;;;3.15;2.10;;;18.10;65.00;;;;;;10412267;28;20029;-48
2022/06/01 09:05:57;;;;;;;3.30;1.63;;;18.00;64.90;;;;;;10413207;28;20120;-47
2022/06/01 09:11:08;;;;;;;5.68;1.92;;;18.00;64.90;;;;;;10412186;28;20508;-51
2022/06/01 09:16:25;;;;;;;3.20;1.90;;;18.00;65.00;;;;;;10406866;28;20582;-48
2022/06/01 09:27:05;;;;;;;3.05;1.60;;;18.00;65.00;;;;;;10418435;28;20509;-53
2022/06/01 09:32:13;;;;;;;3.67;1.50;;;18.00;65.00;;;;;;10412121;28;20087;-51
2022/06/01 09:37:28;;;;;;;3.20;1.48;;;18.00;65.00;;;;;;10412265;28;20449;-53
2022/06/01 09:42:37;;;;;;;2.20;1.60;;;18.00;65.10;;;;;;10411737;28;20065;-49
2022/06/01 09:47:43;;;;;;;2.83;1.60;;;17.90;65.00;;;;;;10411365;28;20462;-51
2022/06/01 09:52:44;;;;;;;4.25;1.88;;;17.90;65.00;;;;;;10411734;28;20421;-48
2022/06/01 10:06:05;;;;;;;2.83;1.73;;;17.90;65.00;;;;;;10410120;28;20041;-48
2022/06/01 10:09:18;;;;;;;4.15;1.95;;;18.00;65.10;;;;;;10404005;28;20041;-51
2022/06/01 10:14:39;;;;;;;3.00;2.10;;;18.00;65.00;;;;;;10413706;28;20164;-50
2022/06/01 10:19:55;;;;;;;5.35;3.15;;;18.10;64.50;;;;;;10419704;28;20045;-52
2022/06/01 10:25:04;;;;;;;4.53;2.55;;;18.10;64.10;;;;;;10417096;28;20037;-50
2022/06/01 10:30:16;;;;;;;8.55;2.63;;;18.20;63.70;;;;;;10420016;28;20104;-47
2022/06/01 10:35:43;;;;;;;3.95;2.60;;;18.20;62.90;;;;;;10418713;28;20098;-48
2022/06/01 10:41:01;;;;;;;11.10;3.40;;;18.20;63.00;;;;;;10432936;28;20033;-48
2022/06/01 10:46:36;;;;;;;3.95;3.03;;;18.10;62.80;;;;;;10421279;28;20036;-50
2022/06/01 10:51:37;;;;;;;4.70;2.80;;;18.10;62.50;;;;;;10417155;28;20029;-49
2022/06/01 10:56:39;;;;;;;6.60;4.50;;;18.10;61.90;;;;;;10417143;28;20032;-52
2022/06/01 11:02:16;;;;;;;5.45;3.30;;;18.10;61.40;;;;;;10417655;28;20381;-52
2022/06/01 11:07:45;;;;;;;6.75;2.97;;;18.20;61.50;;;;;;10418232;28;20030;-48
2022/06/01 11:13:32;;;;;;;6.65;3.47;;;18.10;61.80;;;;;;10404864;28;20037;-49
2022/06/01 11:19:03;;;;;;;5.38;3.72;;;18.10;62.20;;;;;;10416587;28;20103;-51
2022/06/01 11:24:53;;;;;;;7.30;3.95;;;18.10;62.30;;;;;;10417898;28;20038;-48
2022/06/01 11:30:06;;;;;;;5.50;3.53;;;18.10;62.50;;;;;;10416902;28;20034;-49
2022/06/01 11:35:17;;;;;;;4.97;3.80;;;18.10;62.40;;;;;;10415642;28;20508;-49
2022/06/01 11:40:45;;;;;;;5.53;3.80;;;18.00;62.60;;;;;;10423078;28;20562;-49
2022/06/01 11:45:53;;;;;;;4.60;3.70;;;18.10;62.50;;;;;;10416139;28;20056;-49
2022/06/01 11:51:19;;;;;;;5.75;3.72;;;18.00;62.70;;;;;;10417264;28;20033;-48
2022/06/01 11:56:52;;;;;;;6.75;3.25;;;18.10;62.30;;;;;;10417190;28;20037;-49
2022/06/01 12:02:41;;;;;;;3.97;2.38;;;18.10;61.60;;;;;;10415388;28;20034;-47
2022/06/01 12:08:21;;;;;;;4.13;2.22;;;18.10;61.80;;;;;;10416294;28;20383;-47
2022/06/01 12:13:26;;;;;;;4.60;2.05;;;18.20;61.90;;;;;;10394742;28;20029;-48
2022/06/01 12:18:29;;;;;;;3.13;2.33;;;18.20;62.00;;;;;;10417274;28;20104;-50
2022/06/01 12:29:07;;;;;;;2.97;1.67;;;18.20;62.10;;;;;;10415315;28;20045;-46
2022/06/01 12:34:18;;;;;;;3.17;1.70;;;18.30;61.90;;;;;;10415296;28;20415;-51
2022/06/01 12:39:37;;;;;;;2.15;1.38;;;18.20;61.60;;;;;;10429284;28;20048;-50
2022/06/01 12:44:41;;;;;;;6.60;1.80;;;18.20;61.60;;;;;;10413895;28;20055;-48
2022/06/01 12:49:45;;;;;;;2.35;1.60;;;18.20;61.50;;;;;;10414286;28;20679;-49
2022/06/01 12:54:55;;;;;;;3.25;1.63;;;18.30;61.00;;;;;;10414166;28;20061;-52
2022/06/01 13:00:08;;;;;;;4.93;1.60;;;18.30;60.90;;;;;;10414550;28;20032;-47
2022/06/01 13:05:18;;;;;;;7.60;1.63;;;18.30;60.70;;;;;;10413657;28;20486;-51
2022/06/01 13:10:31;;;;;;;5.97;1.35;;;18.30;60.80;;;;;;10413480;28;20033;-49
2022/06/01 13:15:32;;;;;;;2.42;1.20;;;18.30;60.60;;;;;;10397127;28;20080;-49
2022/06/01 13:20:42;;;;;;;2.40;1.30;;;18.30;60.60;;;;;;10413325;28;20029;-51
2022/06/01 13:25:43;;;;;;;3.47;1.48;;;18.30;60.40;;;;;;10412215;28;20034;-49
2022/06/01 13:30:44;;;;;;;3.60;1.38;;;18.30;59.60;;;;;;10412810;28;20075;-52
2022/06/01 13:35:59;;;;;;;4.28;1.20;;;18.20;58.80;;;;;;10411244;28;20449;-51
2022/06/01 13:41:12;;;;;;;3.08;1.15;;;18.30;58.30;;;;;;10412131;28;20064;-48
2022/06/01 13:46:36;;;;;;;3.17;1.33;;;18.30;58.40;;;;;;10407918;28;20055;-47
2022/06/01 13:51:57;;;;;;;4.88;1.08;;;18.30;57.40;;;;;;10410502;28;20056;-48
2022/06/01 13:57:15;;;;;;;3.15;0.95;;;18.20;57.20;;;;;;10410955;28;20033;-47
2022/06/01 14:02:22;;;;;;;2.38;1.10;;;18.20;56.70;;;;;;10412656;28;20382;-48
2022/06/01 14:07:23;;;;;;;2.30;0.90;;;18.20;56.70;;;;;;10412052;28;20033;-49
2022/06/01 14:12:24;;;;;;;2.08;0.90;;;18.20;56.50;;;;;;10411696;28;20128;-53
2022/06/01 14:17:27;;;;;;;1.75;0.98;;;18.20;56.00;;;;;;10412909;28;20025;-49
2022/06/01 14:22:28;;;;;;;2.65;1.40;;;18.20;56.00;;;;;;10410572;28;20037;-49
2022/06/01 14:32:49;;;;;;;2.22;1.33;;;18.20;55.90;;;;;;10411606;28;20033;-47
2022/06/01 14:37:49;;;;;;;3.97;1.10;;;18.20;56.00;;;;;;10420596;28;20046;-47
2022/06/01 14:42:50;;;;;;;2.22;0.80;;;18.20;56.20;;;;;;10402145;28;20038;-47
2022/06/01 14:47:51;;;;;;;4.68;1.65;;;18.20;56.60;;;;;;10409126;28;20073;-50
2022/06/01 14:52:52;;;;;;;2.95;1.45;;;18.20;56.80;;;;;;10408823;28;20109;-48
2022/06/01 14:57:53;;;;;;;5.10;0.90;;;18.20;57.30;;;;;;10409533;28;20033;-47
2022/06/01 15:02:56;;;;;;;3.25;0.90;;;18.20;57.60;;;;;;10413473;28;20108;-53
2022/06/01 15:07:56;;;;;;;3.55;0.82;;;18.20;57.80;;;;;;10401208;28;20064;-49
2022/06/01 15:12:58;;;;;;;5.63;1.23;;;18.20;58.10;;;;;;10417267;28;20407;-49
2022/06/01 15:17:59;;;;;;;4.05;1.05;;;18.20;58.40;;;;;;10419667;28;20044;-48
2022/06/01 15:22:59;;;;;;;3.95;1.40;;;18.20;58.60;;;;;;10417735;28;20071;-48
2022/06/01 15:28:02;;;;;;;1.50;0.93;;;18.20;58.80;;;;;;10410166;28;20037;-47
2022/06/01 15:43:41;;;;;;;3.43;1.57;;;18.20;59.10;;;;;;10418523;28;20045;-51
2022/06/01 15:48:43;;;;;;;6.60;1.80;;;18.40;59.40;;;;;;10417726;28;20037;-49
2022/06/01 15:53:44;;;;;;;9.65;5.35;;;18.40;59.60;;;;;;10398678;28;21458;-52
2022/06/01 15:58:45;;;;;;;5.78;2.78;;;18.50;59.80;;;;;;10417411;28;20643;-48
2022/06/01 16:03:48;;;;;;;8.02;3.08;;;18.60;60.00;;;;;;10417046;28;20029;-52
2022/06/01 16:08:49;;;;;;;8.10;2.90;;;18.70;64.00;;;;;;10415980;28;20033;-46
2022/06/01 16:13:50;;;;;;;4.38;2.00;;;18.90;60.60;;;;;;10415494;28;20116;-48
2022/06/01 16:18:52;;;;;;;9.05;1.90;;;18.90;60.60;;;;;;10418023;28;20033;-48
2022/06/01 16:23:54;;;;;;;10.13;3.35;;;18.90;60.10;;;;;;10416166;28;20025;-47
2022/06/01 16:28:55;;;;;;;8.77;2.50;;;18.90;59.80;;;;;;10416204;28;20444;-48
2022/06/01 16:33:56;;;;;;;3.65;1.77;;;18.90;59.60;;;;;;10415759;28;20038;-51
2022/06/01 16:39:06;;;;;;;7.78;1.98;;;18.90;59.80;;;;;;10430688;28;20021;-50
2022/06/01 16:44:09;;;;;;;11.10;3.15;;;18.90;60.10;;;;;;10414518;28;20037;-55
2022/06/01 16:49:10;;;;;;;6.97;2.55;;;18.80;61.20;;;;;;10415523;28;20087;-51
2022/06/01 16:54:11;;;;;;;7.93;2.28;;;18.80;61.50;;;;;;10413514;28;20120;-53
2022/06/01 16:59:12;;;;;;;13.00;2.63;;;18.70;61.90;;;;;;10413718;28;20056;-49
2022/06/01 17:04:13;;;;;;;18.23;2.72;;;18.60;61.90;;;;;;10414657;28;20025;-52
2022/06/01 17:09:14;;;;;;;7.80;2.50;;;18.60;62.00;;;;;;10414486;28;20071;-52
2022/06/01 17:14:14;;;;;;;7.75;2.30;;;18.60;62.30;;;;;;10413680;28;20034;-48
2022/06/01 17:19:22;;;;;;;9.90;3.00;;;18.60;62.30;;;;;;10413341;28;20370;-48
2022/06/01 17:24:23;;;;;;;9.15;2.92;;;18.70;62.20;;;;;;10413072;28;20033;-51
2022/06/01 17:29:23;;;;;;;9.07;3.58;;;18.60;62.10;;;;;;10412931;28;20631;-51
2022/06/01 17:34:25;;;;;;;8.35;2.92;;;18.70;63.00;;;;;;10412356;28;20124;-49
2022/06/01 17:39:26;;;;;;;7.43;2.55;;;18.80;62.50;;;;;;10416184;28;20084;-52
2022/06/01 17:44:27;;;;;;;8.25;2.80;;;18.70;62.60;;;;;;10411126;28;20144;-51
2022/06/01 17:49:28;;;;;;;10.95;3.90;;;18.60;63.00;;;;;;10412004;28;20025;-53
2022/06/01 17:54:28;;;;;;;10.13;2.72;;;18.60;63.30;;;;;;10394091;28;20030;-49
2022/06/01 17:59:30;;;;;;;11.73;3.83;;;18.60;63.30;;;;;;10411651;28;20018;-50
2022/06/01 18:04:32;;;;;;;8.40;2.95;;;18.60;63.40;;;;;;10399880;28;20479;-53
2022/06/01 18:09:33;;;;;;;7.07;2.28;;;18.60;63.50;;;;;;10389243;28;20500;-52
2022/06/01 18:14:34;;;;;;;7.38;2.50;;;18.60;63.30;;;;;;10400718;28;20126;-50
2022/06/01 18:19:36;;;;;;;9.00;3.47;;;18.50;63.40;;;;;;10409983;28;20056;-50
2022/06/01 18:24:37;;;;;;;7.93;2.78;;;18.50;63.40;;;;;;10410175;28;20033;-50
2022/06/01 18:29:38;;;;;;;14.00;3.67;;;18.50;63.50;;;;;;10426121;28;20100;-49
2022/06/01 18:34:40;;;;;;;14.60;3.20;;;18.50;63.60;;;;;;10411554;28;20049;-49
2022/06/01 18:39:40;;;;;;;10.65;2.80;;;18.50;63.80;;;;;;10418979;28;20021;-49
2022/06/01 18:44:42;;;;;;;7.68;2.50;;;18.50;63.80;;;;;;10420003;28;20033;-51
2022/06/01 18:49:43;;;;;;;6.93;2.40;;;18.50;63.80;;;;;;10418750;28;20088;-51
2022/06/01 18:54:44;;;;;;;12.40;2.47;;;18.50;63.90;;;;;;10419649;28;20116;-50
2022/06/01 19:05:06;;;;;;;5.07;2.65;;;18.50;64.10;;;;;;10418531;28;20386;-55
2022/06/01 19:10:07;;;;;;;6.03;2.50;;;18.50;64.10;;;;;;10418657;28;20029;-52
2022/06/01 19:15:08;;;;;;;7.38;2.13;;;18.50;64.10;;;;;;10412111;28;20033;-52
2022/06/01 19:20:09;;;;;;;5.30;2.15;;;18.40;63.90;;;;;;10419717;28;20041;-50
2022/06/01 19:25:11;;;;;;;4.20;1.58;;;18.40;63.80;;;;;;10417803;28;20588;-50
2022/06/01 19:30:24;;;;;;;5.18;1.95;;;18.40;63.70;;;;;;10410440;28;20112;-51
2022/06/01 19:35:27;;;;;;;2.92;1.40;;;18.40;63.60;;;;;;10417635;28;20085;-52
2022/06/01 19:45:49;;;;;;;4.40;1.60;;;18.30;63.40;;;;;;10417486;28;20120;-52
2022/06/01 19:50:50;;;;;;;2.85;1.40;;;18.40;63.30;;;;;;10416848;28;20033;-49
2022/06/01 19:55:51;;;;;;;4.70;1.70;;;18.30;63.30;;;;;;10417039;28;20033;-51
2022/06/01 20:00:51;;;;;;;2.72;1.20;;;18.30;63.30;;;;;;10417981;28;20036;-52
2022/06/01 20:05:52;;;;;;;3.10;1.55;;;18.40;63.30;;;;;;10417025;28;20104;-50
2022/06/01 20:10:53;;;;;;;3.85;1.65;;;18.30;63.10;;;;;;10416823;28;20091;-50
2022/06/01 20:15:57;;;;;;;4.35;1.23;;;18.30;63.10;;;;;;10417090;28;20038;-51
2022/06/01 20:20:57;;;;;;;4.65;1.85;;;18.30;63.10;;;;;;10417811;28;20025;-48
2022/06/01 20:26:01;;;;;;;3.38;1.92;;;18.30;63.60;;;;;;10416138;28;20128;-49
2022/06/01 20:31:01;;;;;;;3.97;1.27;;;18.30;63.00;;;;;;10431660;28;20034;-54
2022/06/01 20:36:02;;;;;;;2.53;1.40;;;18.30;63.00;;;;;;10414077;28;20473;-50
2022/06/01 20:41:03;;;;;;;1.92;1.63;;;18.30;62.90;;;;;;10415932;28;20291;-53
2022/06/01 20:46:06;;;;;;;3.35;1.40;;;18.30;62.90;;;;;;10415687;28;20037;-53
2022/06/01 20:51:08;;;;;;;2.20;1.63;;;18.30;63.00;;;;;;10413176;28;20037;-54
2022/06/01 20:56:10;;;;;;;2.85;1.10;;;18.30;63.00;;;;;;10414934;28;20032;-53
2022/06/01 21:01:11;;;;;;;4.07;1.50;;;18.30;62.90;;;;;;10413430;28;20030;-50
2022/06/01 21:06:12;;;;;;;3.05;1.30;;;18.30;62.90;;;;;;10414647;28;20037;-51
2022/06/01 21:11:13;;;;;;;3.15;1.52;;;18.30;62.80;;;;;;10417161;28;20048;-49
2022/06/01 21:16:17;;;;;;;3.78;1.30;;;18.30;62.80;;;;;;10414701;28;20029;-51
2022/06/01 21:21:17;;;;;;;3.60;1.67;;;18.30;62.80;;;;;;10415733;28;20080;-49
2022/06/01 21:26:19;;;;;;;3.33;1.23;;;18.30;62.80;;;;;;10414184;28;20075;-49
2022/06/01 21:31:20;;;;;;;1.83;1.10;;;18.30;62.80;;;;;;10409788;28;20030;-49
2022/06/01 21:36:20;;;;;;;2.63;1.20;;;18.30;62.70;;;;;;10413377;28;20125;-50
2022/06/01 21:41:21;;;;;;;2.70;1.10;;;18.30;62.70;;;;;;10413906;28;20627;-54
2022/06/01 21:46:22;;;;;;;2.17;1.20;;;18.30;62.70;;;;;;10413190;28;20033;-50
2022/06/01 21:51:22;;;;;;;2.95;1.13;;;18.30;62.70;;;;;;10412851;28;20104;-51
2022/06/01 21:56:23;;;;;;;2.50;1.20;;;18.30;62.70;;;;;;10413502;28;20152;-52
2022/06/01 22:01:24;;;;;;;1.85;1.08;;;18.30;62.60;;;;;;10413008;28;20031;-49
2022/06/01 22:06:26;;;;;;;1.30;1.00;;;18.30;62.60;;;;;;10412788;28;20484;-50
2022/06/01 22:16:46;;;;;;;1.50;1.00;;;18.30;62.50;;;;;;10405557;28;20045;-51
2022/06/01 22:21:47;;;;;;;1.75;1.20;;;18.30;62.50;;;;;;10410429;28;20029;-50
2022/06/01 22:26:54;;;;;;;1.20;0.80;;;18.30;62.50;;;;;;10412596;28;20029;-52
2022/06/01 22:31:55;;;;;;;1.70;1.02;;;18.20;62.50;;;;;;10410959;28;20038;-49
2022/06/01 22:37:14;;;;;;;1.77;1.13;;;18.30;62.50;;;;;;10412114;28;20120;-51
2022/06/01 22:42:16;;;;;;;2.17;1.00;;;18.30;62.50;;;;;;10410650;28;20025;-49
2022/06/01 22:47:24;;;;;;;1.83;0.90;;;18.30;62.50;;;;;;10404994;28;20032;-52
2022/06/01 22:52:32;;;;;;;1.70;0.98;;;18.20;62.40;;;;;;10426899;28;20091;-52
2022/06/01 22:57:33;;;;;;;2.35;1.15;;;18.30;62.50;;;;;;10412221;28;20460;-54
2022/06/01 23:02:38;;;;;;;1.52;0.95;;;18.20;62.40;;;;;;10411609;28;20041;-50
2022/06/01 23:07:38;;;;;;;1.48;1.10;;;18.20;62.40;;;;;;10411922;28;20076;-50
2022/06/01 23:12:39;;;;;;;1.48;0.95;;;18.20;62.30;;;;;;10397425;28;20558;-49
2022/06/01 23:17:40;;;;;;;3.35;1.00;;;18.20;62.30;;;;;;10412788;28;20155;-54
2022/06/01 23:22:41;;;;;;;1.77;1.10;;;18.20;62.30;;;;;;10413654;28;20124;-54
2022/06/01 23:27:41;;;;;;;1.77;0.82;;;18.20;62.30;;;;;;10418697;28;20105;-49
2022/06/01 23:32:48;;;;;;;1.90;0.95;;;18.20;62.30;;;;;;10418286;28;20065;-50
2022/06/01 23:38:16;;;;;;;1.85;1.02;;;18.20;62.30;;;;;;10418540;28;20049;-52
2022/06/01 23:44:23;;;;;;;1.88;1.27;;;18.20;62.30;;;;;;10416484;28;20029;-53
2022/06/01 23:49:45;;;;;;;0.93;0.73;;;18.20;62.30;;;;;;10327105;28;20050;-49
2022/06/01 23:55:28;;;;;;;1.95;1.08;;;18.20;62.30;;;;;;10394419;28;20049;-50
